Time;durP1;ratioP1;P1;durP2;ratioP2;P2;SDS_P1;SDS_P2;PMS_P1;PMS_P2;Temp;Humidity;BMP_temperature;BMP_pressure;BME280_temperature;BME280_humidity;BME280_pressure;Samples;Min_cycle;Max_cycle;Signal;HPM_P1;HPM_P2
2022/02/16 00:02:02;;;;;;;2.00;1.27;;;;;;;;;;5060979;28;20055;-45
2022/02/16 00:04:28;;;;;;;2.28;1.38;;;;;;;;;;5074540;28;20032;-46
2022/02/16 00:06:54;;;;;;;3.75;1.02;;;;;;;;;;5065451;28;20087;-46
2022/02/16 00:09:20;;;;;;;2.20;1.40;;;;;;;;;;5067165;28;20039;-48
2022/02/16 00:11:46;;;;;;;1.50;0.98;;;;;;;;;;5071095;28;20087;-47
2022/02/16 00:14:12;;;;;;;2.20;1.27;;;;;;;;;;5070944;28;20045;-46
2022/02/16 00:16:38;;;;;;;3.63;1.52;;;;;;;;;;5072769;28;20067;-46
2022/02/16 00:19:04;;;;;;;4.80;1.20;;;;;;;;;;5066513;28;20055;-46
2022/02/16 00:21:30;;;;;;;2.22;1.25;;;;;;;;;;5070017;28;20035;-46
2022/02/16 00:23:56;;;;;;;2.25;1.13;;;;;;;;;;5071099;28;20039;-47
2022/02/16 00:26:22;;;;;;;1.92;1.20;;;;;;;;;;5073184;28;20039;-46
2022/02/16 00:28:48;;;;;;;2.25;1.17;;;;;;;;;;5067064;28;20033;-46
2022/02/16 00:31:14;;;;;;;2.20;1.00;;;;;;;;;;5070852;28;20044;-46
2022/02/16 00:33:40;;;;;;;3.08;1.80;;;;;;;;;;5063914;28;20036;-46
2022/02/16 00:36:06;;;;;;;2.70;1.77;;;;;;;;;;5071014;28;20028;-46
2022/02/16 00:38:32;;;;;;;3.53;1.10;;;;;;;;;;5065223;28;20032;-46
2022/02/16 00:40:58;;;;;;;5.25;1.67;;;;;;;;;;5073994;28;20035;-46
2022/02/16 00:43:25;;;;;;;4.68;1.95;;;;;;;;;;5065592;28;20028;-46
2022/02/16 00:45:51;;;;;;;3.30;1.52;;;;;;;;;;5072431;28;20078;-46
2022/02/16 00:48:17;;;;;;;5.97;1.25;;;;;;;;;;5067957;28;20020;-46
2022/02/16 00:50:43;;;;;;;3.28;1.58;;;;;;;;;;5071851;28;20033;-47
2022/02/16 00:53:09;;;;;;;5.05;1.52;;;;;;;;;;5072761;28;20048;-48
2022/02/16 00:55:35;;;;;;;1.45;1.10;;;;;;;;;;5061793;28;20032;-46
2022/02/16 00:58:05;;;;;;;4.28;1.27;;;;;;;;;;5063190;28;20349;-46
2022/02/16 01:00:31;;;;;;;1.98;1.25;;;;;;;;;;5067257;28;20029;-46
2022/02/16 01:02:57;;;;;;;1.60;1.00;;;;;;;;;;5055602;28;20048;-46
2022/02/16 01:05:23;;;;;;;8.20;2.50;;;;;;;;;;5057023;28;20037;-49
2022/02/16 01:07:49;;;;;;;2.35;1.60;;;;;;;;;;5064152;28;20089;-46
2022/02/16 01:10:15;;;;;;;7.18;1.40;;;;;;;;;;5074385;28;20040;-48
2022/02/16 01:12:41;;;;;;;3.60;1.33;;;;;;;;;;5064658;28;20485;-50
2022/02/16 01:15:07;;;;;;;5.80;1.63;;;;;;;;;;5071415;28;20145;-46
2022/02/16 01:17:33;;;;;;;3.67;1.63;;;;;;;;;;5066321;28;20025;-47
2022/02/16 01:19:59;;;;;;;2.90;1.38;;;;;;;;;;5073588;28;20020;-48
2022/02/16 01:22:25;;;;;;;3.05;2.00;;;;;;;;;;5060716;28;20254;-48
2022/02/16 01:24:51;;;;;;;3.63;2.00;;;;;;;;;;5069461;28;20036;-46
2022/02/16 01:27:17;;;;;;;3.20;2.03;;;;;;;;;;5068260;28;20111;-46
2022/02/16 01:29:43;;;;;;;3.53;2.15;;;;;;;;;;5066324;28;20094;-46
2022/02/16 01:32:09;;;;;;;5.72;1.98;;;;;;;;;;5067313;28;20029;-46
2022/02/16 01:34:35;;;;;;;5.78;2.00;;;;;;;;;;5058689;28;20035;-47
2022/02/16 01:37:01;;;;;;;3.65;2.05;;;;;;;;;;5068775;28;20081;-46
2022/02/16 01:39:27;;;;;;;4.05;2.70;;;;;;;;;;5063503;28;20096;-46
2022/02/16 01:41:55;;;;;;;3.70;1.90;;;;;;;;;;5065649;28;20032;-46
2022/02/16 01:44:22;;;;;;;6.43;1.90;;;;;;;;;;5057100;28;20028;-46
2022/02/16 01:46:49;;;;;;;3.90;2.33;;;;;;;;;;5058219;28;20074;-46
2022/02/16 01:49:15;;;;;;;3.10;2.30;;;;;;;;;;5062841;28;20163;-46
2022/02/16 01:51:41;;;;;;;6.88;2.60;;;;;;;;;;5067139;28;20115;-46
2022/02/16 01:54:09;;;;;;;2.58;2.10;;;;;;;;;;5059029;28;20037;-46
2022/02/16 01:56:35;;;;;;;7.45;2.35;;;;;;;;;;5067929;28;20111;-46
2022/02/16 01:59:01;;;;;;;3.25;1.90;;;;;;;;;;5068005;28;20529;-46
2022/02/16 02:01:27;;;;;;;6.68;2.70;;;;;;;;;;5063316;28;20078;-50
2022/02/16 02:03:53;;;;;;;4.40;2.70;;;;;;;;;;5068728;28;20048;-48
2022/02/16 02:06:19;;;;;;;11.48;2.55;;;;;;;;;;5070516;28;20035;-47
2022/02/16 02:08:45;;;;;;;3.70;2.35;;;;;;;;;;5062816;28;20024;-47
2022/02/16 02:11:11;;;;;;;3.75;2.47;;;;;;;;;;5068450;28;20040;-49
2022/02/16 02:13:37;;;;;;;5.38;2.10;;;;;;;;;;5063711;28;20709;-49
2022/02/16 02:16:03;;;;;;;5.78;3.20;;;;;;;;;;5070706;28;20020;-47
2022/02/16 02:18:29;;;;;;;8.38;3.10;;;;;;;;;;5069086;28;20017;-49
2022/02/16 02:20:55;;;;;;;7.68;3.00;;;;;;;;;;5067978;28;20036;-48
2022/02/16 02:23:21;;;;;;;5.80;2.65;;;;;;;;;;5067371;28;20432;-48
2022/02/16 02:25:48;;;;;;;6.40;3.00;;;;;;;;;;5062492;28;20039;-48
2022/02/16 02:28:15;;;;;;;3.78;2.60;;;;;;;;;;5065751;28;20029;-47
2022/02/16 02:30:41;;;;;;;7.80;3.40;;;;;;;;;;5071409;28;20048;-49
2022/02/16 02:33:07;;;;;;;8.23;3.45;;;;;;;;;;5065008;28;20025;-50
2022/02/16 02:35:33;;;;;;;6.68;2.75;;;;;;;;;;5065876;28;20447;-48
2022/02/16 02:38:00;;;;;;;7.53;3.33;;;;;;;;;;5071099;28;20033;-50
2022/02/16 02:40:26;;;;;;;7.22;2.95;;;;;;;;;;5067076;28;20472;-49
2022/02/16 02:42:52;;;;;;;3.60;2.38;;;;;;;;;;5066040;28;20060;-48
2022/02/16 02:45:17;;;;;;;3.45;2.13;;;;;;;;;;5065926;28;20037;-49
2022/02/16 02:47:43;;;;;;;3.72;2.25;;;;;;;;;;5068852;28;20064;-49
2022/02/16 02:50:10;;;;;;;5.63;2.80;;;;;;;;;;5058309;28;20440;-48
2022/02/16 02:52:36;;;;;;;3.78;2.10;;;;;;;;;;5068030;28;20498;-47
2022/02/16 02:55:03;;;;;;;11.57;2.70;;;;;;;;;;5063212;28;20385;-47
2022/02/16 02:57:29;;;;;;;5.30;2.60;;;;;;;;;;5067065;28;20100;-48
2022/02/16 02:59:55;;;;;;;4.07;2.30;;;;;;;;;;5069792;28;20035;-50
2022/02/16 03:02:23;;;;;;;5.50;2.30;;;;;;;;;;5071993;28;20505;-49
2022/02/16 03:04:49;;;;;;;4.20;2.25;;;;;;;;;;5055558;28;20032;-48
2022/02/16 03:07:15;;;;;;;5.18;2.10;;;;;;;;;;5069493;28;20036;-47
2022/02/16 03:09:41;;;;;;;4.68;2.20;;;;;;;;;;5061557;28;20029;-47
2022/02/16 03:12:07;;;;;;;3.33;2.05;;;;;;;;;;5068966;28;20503;-47
2022/02/16 03:14:33;;;;;;;4.88;2.38;;;;;;;;;;5059818;28;20086;-48
2022/02/16 03:16:59;;;;;;;5.35;2.40;;;;;;;;;;5064870;28;20021;-47
2022/02/16 03:19:25;;;;;;;2.88;2.05;;;;;;;;;;5065744;28;20470;-48
2022/02/16 03:21:51;;;;;;;3.10;2.15;;;;;;;;;;5065662;28;20024;-48
2022/02/16 03:24:17;;;;;;;2.97;2.08;;;;;;;;;;5072313;28;20028;-47
2022/02/16 03:26:43;;;;;;;3.25;2.13;;;;;;;;;;5069539;28;20039;-47
2022/02/16 03:29:09;;;;;;;5.97;2.58;;;;;;;;;;5058767;28;20544;-48
2022/02/16 03:31:35;;;;;;;3.80;2.17;;;;;;;;;;5071020;28;20068;-50
2022/02/16 03:34:01;;;;;;;4.45;1.80;;;;;;;;;;5071442;28;20043;-47
2022/02/16 03:36:27;;;;;;;5.28;2.53;;;;;;;;;;5070356;28;20435;-47
2022/02/16 03:38:53;;;;;;;4.00;2.17;;;;;;;;;;5078560;28;20054;-47
2022/02/16 03:41:19;;;;;;;2.80;1.52;;;;;;;;;;5071999;28;20040;-49
2022/02/16 03:43:45;;;;;;;3.50;2.53;;;;;;;;;;5066800;28;20043;-50
2022/02/16 03:46:11;;;;;;;5.57;2.00;;;;;;;;;;5069325;28;20029;-47
2022/02/16 03:48:37;;;;;;;3.63;2.20;;;;;;;;;;5064895;28;20060;-52
2022/02/16 03:51:04;;;;;;;3.88;2.00;;;;;;;;;;5064433;28;20039;-48
2022/02/16 03:53:30;;;;;;;5.43;2.00;;;;;;;;;;5063306;28;20052;-48
2022/02/16 03:55:56;;;;;;;6.28;2.42;;;;;;;;;;5068522;28;20024;-47
2022/02/16 03:58:22;;;;;;;3.72;2.30;;;;;;;;;;5069033;28;20031;-48
2022/02/16 04:00:49;;;;;;;4.25;1.90;;;;;;;;;;5060505;28;20044;-51
2022/02/16 04:03:15;;;;;;;4.68;2.03;;;;;;;;;;5072492;28;20117;-47
2022/02/16 04:05:42;;;;;;;3.33;1.42;;;;;;;;;;5065318;28;20168;-47
2022/02/16 04:08:09;;;;;;;5.93;1.73;;;;;;;;;;5070198;28;20032;-48
2022/02/16 04:10:35;;;;;;;3.53;2.17;;;;;;;;;;5074112;28;20028;-48
2022/02/16 04:13:01;;;;;;;2.88;1.77;;;;;;;;;;5071285;28;20070;-52
2022/02/16 04:15:26;;;;;;;3.95;1.67;;;;;;;;;;5068323;28;20029;-51
2022/02/16 04:17:52;;;;;;;6.22;1.90;;;;;;;;;;5066904;28;20099;-48
2022/02/16 04:20:18;;;;;;;5.78;2.00;;;;;;;;;;5063143;28;20025;-49
2022/02/16 04:22:45;;;;;;;3.90;2.00;;;;;;;;;;5064638;28;20403;-48
2022/02/16 04:25:11;;;;;;;1.58;1.30;;;;;;;;;;5063873;28;20038;-49
2022/02/16 04:27:37;;;;;;;4.68;2.00;;;;;;;;;;5059215;28;20448;-53
2022/02/16 04:30:04;;;;;;;3.38;1.60;;;;;;;;;;5068370;28;20440;-47
2022/02/16 04:32:30;;;;;;;4.90;1.80;;;;;;;;;;5071321;28;20329;-48
2022/02/16 04:34:56;;;;;;;4.03;2.03;;;;;;;;;;5066955;28;20044;-47
2022/02/16 04:37:22;;;;;;;3.17;1.60;;;;;;;;;;5066462;28;20113;-47
2022/02/16 04:39:48;;;;;;;8.40;2.38;;;;;;;;;;5065582;28;20035;-47
2022/02/16 04:42:14;;;;;;;3.35;1.63;;;;;;;;;;5067037;28;20033;-47
2022/02/16 04:44:40;;;;;;;3.00;1.40;;;;;;;;;;5071259;28;20397;-47
2022/02/16 04:47:06;;;;;;;2.03;1.40;;;;;;;;;;5067175;28;20032;-53
2022/02/16 04:49:32;;;;;;;3.25;1.60;;;;;;;;;;5067857;28;20036;-51
2022/02/16 04:51:58;;;;;;;4.93;1.83;;;;;;;;;;5061702;28;20078;-49
2022/02/16 04:54:24;;;;;;;3.47;1.50;;;;;;;;;;5068798;28;20044;-52
2022/02/16 04:56:50;;;;;;;4.10;1.23;;;;;;;;;;5068073;28;20020;-50
2022/02/16 04:59:16;;;;;;;9.88;1.83;;;;;;;;;;5067008;28;20467;-48
2022/02/16 05:01:45;;;;;;;4.60;1.83;;;;;;;;;;5059898;28;20516;-47
2022/02/16 05:04:11;;;;;;;3.60;1.40;;;;;;;;;;5064699;28;20053;-47
2022/02/16 05:06:41;;;;;;;2.40;1.30;;;;;;;;;;5071197;28;20032;-47
2022/02/16 05:09:07;;;;;;;2.38;1.50;;;;;;;;;;5069365;28;20032;-47
2022/02/16 05:11:33;;;;;;;3.65;1.45;;;;;;;;;;5063093;28;20036;-48
2022/02/16 05:13:59;;;;;;;1.85;1.25;;;;;;;;;;5066738;28;20028;-48
2022/02/16 05:16:25;;;;;;;3.80;1.45;;;;;;;;;;5066624;28;20102;-51
2022/02/16 05:18:51;;;;;;;2.03;1.05;;;;;;;;;;5074301;28;20033;-47
2022/02/16 05:21:17;;;;;;;1.10;1.00;;;;;;;;;;5062689;28;20768;-48
2022/02/16 05:23:43;;;;;;;4.25;1.35;;;;;;;;;;5055226;28;20130;-50
2022/02/16 05:26:10;;;;;;;2.40;1.40;;;;;;;;;;5066217;28;20021;-52
2022/02/16 05:28:36;;;;;;;3.55;1.75;;;;;;;;;;5066062;28;20037;-51
2022/02/16 05:31:02;;;;;;;1.70;1.35;;;;;;;;;;5069216;28;20031;-47
2022/02/16 05:33:28;;;;;;;3.63;1.77;;;;;;;;;;5058399;28;20029;-50
2022/02/16 05:35:54;;;;;;;1.50;1.25;;;;;;;;;;5067088;28;20079;-51
2022/02/16 05:38:20;;;;;;;1.80;1.42;;;;;;;;;;5071489;28;20099;-47
2022/02/16 05:40:46;;;;;;;2.17;1.40;;;;;;;;;;5065830;28;20042;-49
2022/02/16 05:43:13;;;;;;;2.85;1.23;;;;;;;;;;5068747;28;20047;-47
2022/02/16 05:45:42;;;;;;;2.35;1.42;;;;;;;;;;5069292;28;20119;-48
2022/02/16 05:48:09;;;;;;;2.75;0.95;;;;;;;;;;5069843;28;20036;-48
2022/02/16 05:50:35;;;;;;;1.90;1.10;;;;;;;;;;5072001;28;20037;-48
2022/02/16 05:53:01;;;;;;;2.08;1.55;;;;;;;;;;5053601;28;20049;-49
2022/02/16 05:55:27;;;;;;;2.72;1.67;;;;;;;;;;5066310;28;20605;-49
2022/02/16 05:57:53;;;;;;;3.45;1.30;;;;;;;;;;5068495;28;20017;-53
2022/02/16 06:00:19;;;;;;;3.63;1.60;;;;;;;;;;5070120;28;20055;-53
2022/02/16 06:02:45;;;;;;;1.58;1.23;;;;;;;;;;5059412;28;20047;-49
2022/02/16 06:05:11;;;;;;;1.65;1.45;;;;;;;;;;5067244;28;20036;-49
2022/02/16 06:07:37;;;;;;;3.13;1.50;;;;;;;;;;5066876;28;20053;-49
2022/02/16 06:10:04;;;;;;;3.05;1.25;;;;;;;;;;5065669;28;20770;-48
2022/02/16 06:12:30;;;;;;;2.15;1.40;;;;;;;;;;5071201;28;20029;-48
2022/02/16 06:14:55;;;;;;;3.75;1.40;;;;;;;;;;5062866;28;20036;-48
2022/02/16 06:17:21;;;;;;;2.97;1.25;;;;;;;;;;5068839;28;20024;-48
2022/02/16 06:19:47;;;;;;;4.35;1.63;;;;;;;;;;5066365;28;20070;-48
2022/02/16 06:22:13;;;;;;;3.53;1.58;;;;;;;;;;5059115;28;20723;-48
2022/02/16 06:24:40;;;;;;;2.10;1.33;;;;;;;;;;5058725;28;20368;-47
2022/02/16 06:27:06;;;;;;;1.88;1.45;;;;;;;;;;5061280;28;20089;-48
2022/02/16 06:29:32;;;;;;;2.28;1.45;;;;;;;;;;5055040;28;21168;-50
2022/02/16 06:31:58;;;;;;;2.80;1.48;;;;;;;;;;5069171;28;20028;-54
2022/02/16 06:34:24;;;;;;;2.33;1.48;;;;;;;;;;5066198;28;20029;-50
2022/02/16 06:36:50;;;;;;;6.65;1.63;;;;;;;;;;5062882;28;20412;-51
2022/02/16 06:39:16;;;;;;;1.45;1.25;;;;;;;;;;5065908;28;20056;-47
2022/02/16 06:41:42;;;;;;;1.70;1.17;;;;;;;;;;5054975;28;20029;-48
2022/02/16 06:44:08;;;;;;;2.13;1.30;;;;;;;;;;5062401;28;20574;-49
2022/02/16 06:46:34;;;;;;;2.38;1.13;;;;;;;;;;5072495;28;20024;-48
2022/02/16 06:49:00;;;;;;;3.97;1.60;;;;;;;;;;5065160;28;20033;-48
2022/02/16 06:51:26;;;;;;;1.90;1.35;;;;;;;;;;5068527;28;20174;-48
2022/02/16 06:53:55;;;;;;;2.85;1.23;;;;;;;;;;5071839;28;20409;-52
2022/02/16 06:56:22;;;;;;;2.50;1.30;;;;;;;;;;5072391;28;20024;-52
2022/02/16 06:58:48;;;;;;;3.08;1.10;;;;;;;;;;5067409;28;20021;-51
2022/02/16 07:01:14;;;;;;;3.85;1.95;;;;;;;;;;5057561;28;20074;-48
2022/02/16 07:03:40;;;;;;;2.15;1.00;;;;;;;;;;5072226;28;20024;-53
2022/02/16 07:06:06;;;;;;;1.77;0.90;;;;;;;;;;5065740;28;20489;-54
2022/02/16 07:08:32;;;;;;;1.58;1.25;;;;;;;;;;5069579;28;20069;-52
2022/02/16 07:10:58;;;;;;;1.75;1.08;;;;;;;;;;5069080;28;20020;-51
2022/02/16 07:13:24;;;;;;;3.38;1.20;;;;;;;;;;5061224;28;20041;-51
2022/02/16 07:15:51;;;;;;;1.25;0.95;;;;;;;;;;5066205;28;20384;-48
2022/02/16 07:18:18;;;;;;;1.40;0.98;;;;;;;;;;5066326;28;20438;-48
2022/02/16 07:20:44;;;;;;;1.67;0.95;;;;;;;;;;5070890;28;20459;-52
2022/02/16 07:23:10;;;;;;;3.20;2.03;;;;;;;;;;5064387;28;20078;-49
2022/02/16 07:25:36;;;;;;;3.90;1.15;;;;;;;;;;5065359;28;20037;-52
2022/02/16 07:28:04;;;;;;;2.75;1.00;;;;;;;;;;5063479;28;20068;-49
2022/02/16 07:30:31;;;;;;;1.25;0.93;;;;;;;;;;5064993;28;20111;-48
2022/02/16 07:32:57;;;;;;;2.72;1.10;;;;;;;;;;5058623;28;20070;-50
2022/02/16 07:35:23;;;;;;;3.15;0.98;;;;;;;;;;5061138;28;20021;-49
2022/02/16 07:37:51;;;;;;;1.63;1.08;;;;;;;;;;5064515;28;20088;-51
2022/02/16 07:40:17;;;;;;;1.75;1.15;;;;;;;;;;5071648;28;20016;-53
2022/02/16 07:42:43;;;;;;;1.30;0.80;;;;;;;;;;5068679;28;20538;-50
2022/02/16 07:45:09;;;;;;;2.25;1.20;;;;;;;;;;5071650;28;20033;-48
2022/02/16 07:47:36;;;;;;;4.30;1.50;;;;;;;;;;5067312;28;20442;-49
2022/02/16 07:50:03;;;;;;;1.73;1.10;;;;;;;;;;5071654;28;20028;-48
2022/02/16 07:52:31;;;;;;;0.77;0.60;;;;;;;;;;5064848;28;20037;-48
2022/02/16 07:54:57;;;;;;;1.02;0.90;;;;;;;;;;5054936;28;20076;-48
2022/02/16 07:57:23;;;;;;;2.72;0.93;;;;;;;;;;5060223;28;20028;-49
2022/02/16 07:59:49;;;;;;;1.30;0.60;;;;;;;;;;5062989;28;20423;-48
2022/02/16 08:02:15;;;;;;;1.58;0.88;;;;;;;;;;5069161;28;20036;-50
2022/02/16 08:04:41;;;;;;;2.63;0.93;;;;;;;;;;5070276;28;20043;-51
2022/02/16 08:07:07;;;;;;;1.80;0.90;;;;;;;;;;5072570;28;20037;-52
2022/02/16 08:09:33;;;;;;;2.47;0.90;;;;;;;;;;5062071;28;20032;-50
2022/02/16 08:11:59;;;;;;;3.35;0.98;;;;;;;;;;5072208;28;20367;-52
2022/02/16 08:14:26;;;;;;;1.38;0.98;;;;;;;;;;5067441;28;20032;-50
2022/02/16 08:16:55;;;;;;;1.00;0.77;;;;;;;;;;5061639;28;20135;-48
2022/02/16 08:19:23;;;;;;;1.38;0.80;;;;;;;;;;5061874;28;20481;-51
2022/02/16 08:21:49;;;;;;;1.73;0.70;;;;;;;;;;5064331;28;20033;-51
2022/02/16 08:24:15;;;;;;;1.90;0.85;;;;;;;;;;5069083;28;20036;-49
2022/02/16 08:26:41;;;;;;;1.38;0.82;;;;;;;;;;5074027;28;20032;-49
2022/02/16 08:29:07;;;;;;;1.88;0.77;;;;;;;;;;5073925;28;20035;-48
2022/02/16 08:31:33;;;;;;;1.25;1.02;;;;;;;;;;5073803;28;20426;-48
2022/02/16 08:33:59;;;;;;;1.13;0.70;;;;;;;;;;5064423;28;20067;-48
2022/02/16 08:36:25;;;;;;;1.33;0.65;;;;;;;;;;5064326;28;20025;-48
2022/02/16 08:38:51;;;;;;;1.20;0.80;;;;;;;;;;5065024;28;20056;-50
2022/02/16 08:41:17;;;;;;;1.40;0.80;;;;;;;;;;5069555;28;20021;-51
2022/02/16 08:43:43;;;;;;;2.72;1.00;;;;;;;;;;5073727;28;20465;-48
2022/02/16 08:46:09;;;;;;;1.77;1.00;;;;;;;;;;5072964;28;20017;-52
2022/02/16 08:48:35;;;;;;;1.42;0.98;;;;;;;;;;5070142;28;20040;-50
2022/02/16 08:51:01;;;;;;;1.50;0.80;;;;;;;;;;5069821;28;20052;-50
2022/02/16 08:53:29;;;;;;;1.42;1.02;;;;;;;;;;5066208;28;20470;-48
2022/02/16 08:55:55;;;;;;;1.75;0.85;;;;;;;;;;5073989;28;20064;-48
2022/02/16 08:58:21;;;;;;;0.70;0.60;;;;;;;;;;5072768;28;20029;-50
2022/02/16 09:00:48;;;;;;;0.80;0.60;;;;;;;;;;5070836;28;20049;-48
2022/02/16 09:03:14;;;;;;;1.55;0.77;;;;;;;;;;5072870;28;20037;-48
2022/02/16 09:05:40;;;;;;;1.33;1.05;;;;;;;;;;5070721;28;20039;-49
2022/02/16 09:08:06;;;;;;;2.83;0.73;;;;;;;;;;5068330;28;20144;-49
2022/02/16 09:10:32;;;;;;;1.17;0.70;;;;;;;;;;5062109;28;20586;-48
2022/02/16 09:12:58;;;;;;;2.15;0.80;;;;;;;;;;5061688;28;20029;-50
2022/02/16 09:15:26;;;;;;;0.75;0.60;;;;;;;;;;5071769;28;20399;-50
2022/02/16 09:17:53;;;;;;;1.52;0.75;;;;;;;;;;5065828;28;20021;-50
2022/02/16 09:20:20;;;;;;;1.77;0.70;;;;;;;;;;5071924;28;20035;-49
2022/02/16 09:22:46;;;;;;;1.50;0.90;;;;;;;;;;5062409;28;20389;-48
2022/02/16 09:25:12;;;;;;;3.88;0.70;;;;;;;;;;5071255;28;20024;-49
2022/02/16 09:27:38;;;;;;;1.45;0.60;;;;;;;;;;5066013;28;20108;-49
2022/02/16 09:30:05;;;;;;;1.13;0.77;;;;;;;;;;5068359;28;20055;-49
2022/02/16 09:32:31;;;;;;;0.52;0.50;;;;;;;;;;5062782;28;20032;-53
2022/02/16 09:34:57;;;;;;;1.75;0.70;;;;;;;;;;5065980;28;20032;-48
2022/02/16 09:37:23;;;;;;;0.80;0.50;;;;;;;;;;5065050;28;20107;-48
2022/02/16 09:39:51;;;;;;;0.93;0.70;;;;;;;;;;5065364;28;20021;-49
2022/02/16 09:42:17;;;;;;;0.85;0.63;;;;;;;;;;5070840;28;20032;-51
2022/02/16 09:44:50;;;;;;;1.10;0.70;;;;;;;;;;5060251;28;20028;-52
2022/02/16 09:47:16;;;;;;;1.05;0.95;;;;;;;;;;5060798;28;20082;-52
2022/02/16 09:49:42;;;;;;;1.10;0.88;;;;;;;;;;5067031;28;20472;-48
2022/02/16 09:52:09;;;;;;;0.90;0.75;;;;;;;;;;5067337;28;20021;-53
2022/02/16 09:54:36;;;;;;;1.08;0.70;;;;;;;;;;5066451;28;20408;-50
2022/02/16 09:57:03;;;;;;;0.90;0.75;;;;;;;;;;5060252;28;20024;-52
2022/02/16 09:59:29;;;;;;;1.55;0.88;;;;;;;;;;5068764;28;20033;-54
2022/02/16 10:01:58;;;;;;;1.50;0.95;;;;;;;;;;5069154;28;20369;-54
2022/02/16 10:04:25;;;;;;;2.95;0.93;;;;;;;;;;5070649;28;20120;-54
2022/02/16 10:06:51;;;;;;;1.17;0.80;;;;;;;;;;5067546;28;20020;-50
2022/02/16 10:09:24;;;;;;;1.88;0.90;;;;;;;;;;5066926;28;20095;-49
2022/02/16 10:11:52;;;;;;;2.78;0.90;;;;;;;;;;5065436;28;20024;-53
2022/02/16 10:14:19;;;;;;;1.05;0.85;;;;;;;;;;5068974;28;20083;-53
2022/02/16 10:16:45;;;;;;;2.28;1.33;;;;;;;;;;5069181;28;20020;-54
2022/02/16 10:19:11;;;;;;;2.25;1.13;;;;;;;;;;5064874;28;20029;-53
2022/02/16 10:21:38;;;;;;;1.63;0.90;;;;;;;;;;5065598;28;20109;-54
2022/02/16 10:24:04;;;;;;;5.05;1.00;;;;;;;;;;5055227;28;20028;-51
2022/02/16 10:26:50;;;;;;;1.63;0.90;;;;;;;;;;5057896;28;20032;-49
2022/02/16 10:29:20;;;;;;;1.50;0.98;;;;;;;;;;5068577;28;20029;-52
2022/02/16 10:31:46;;;;;;;1.50;0.90;;;;;;;;;;5070114;28;20040;-49
2022/02/16 10:34:12;;;;;;;0.95;0.82;;;;;;;;;;5063798;28;20093;-49
2022/02/16 10:36:38;;;;;;;1.98;0.90;;;;;;;;;;5060974;28;20036;-54
2022/02/16 10:39:08;;;;;;;2.30;1.17;;;;;;;;;;5059700;28;20111;-54
2022/02/16 10:41:41;;;;;;;4.78;0.98;;;;;;;;;;5056570;28;20029;-53
2022/02/16 10:44:18;;;;;;;3.13;2.20;;;;;;;;;;5078010;28;20033;-55
2022/02/16 10:46:44;;;;;;;1.50;1.02;;;;;;;;;;5065433;28;20714;-49
2022/02/16 10:49:11;;;;;;;1.75;1.17;;;;;;;;;;5062866;28;20025;-53
2022/02/16 10:51:37;;;;;;;1.67;1.00;;;;;;;;;;5060085;28;20544;-49
2022/02/16 10:54:13;;;;;;;1.42;0.90;;;;;;;;;;5067292;28;20431;-52
2022/02/16 10:56:43;;;;;;;1.25;1.08;;;;;;;;;;5065988;28;20021;-50
2022/02/16 10:59:09;;;;;;;2.22;1.27;;;;;;;;;;5064651;28;20040;-52
2022/02/16 11:01:35;;;;;;;1.40;1.00;;;;;;;;;;5066522;28;20028;-49
2022/02/16 11:04:05;;;;;;;1.33;1.02;;;;;;;;;;5066054;28;20024;-53
2022/02/16 11:06:31;;;;;;;1.23;1.08;;;;;;;;;;5063794;28;20135;-54
2022/02/16 11:08:59;;;;;;;2.13;0.75;;;;;;;;;;5067125;28;20031;-52
2022/02/16 11:11:27;;;;;;;1.85;1.10;;;;;;;;;;5069298;28;20032;-49
2022/02/16 11:13:54;;;;;;;2.22;1.00;;;;;;;;;;5064711;28;20460;-49
2022/02/16 11:16:20;;;;;;;2.55;1.33;;;;;;;;;;5054545;28;20036;-51
2022/02/16 11:18:48;;;;;;;1.48;1.00;;;;;;;;;;5054217;28;20051;-53
2022/02/16 11:21:15;;;;;;;1.20;1.05;;;;;;;;;;5061715;28;20094;-55
2022/02/16 11:23:44;;;;;;;1.60;1.00;;;;;;;;;;5063208;28;20059;-51
2022/02/16 11:26:29;;;;;;;1.23;1.10;;;;;;;;;;5071098;28;20473;-54
2022/02/16 11:28:55;;;;;;;1.80;1.23;;;;;;;;;;5071080;28;20032;-54
2022/02/16 11:31:25;;;;;;;2.25;1.20;;;;;;;;;;5061198;28;20028;-50
2022/02/16 11:34:13;;;;;;;2.38;1.20;;;;;;;;;;5064425;28;20024;-52
2022/02/16 11:36:46;;;;;;;1.75;1.27;;;;;;;;;;5069348;28;20021;-52
2022/02/16 11:39:12;;;;;;;2.22;1.00;;;;;;;;;;5064629;28;20075;-54
2022/02/16 11:41:54;;;;;;;1.55;1.10;;;;;;;;;;5059609;28;20094;-53
2022/02/16 11:44:20;;;;;;;1.88;1.20;;;;;;;;;;5071352;28;20484;-49
2022/02/16 11:46:50;;;;;;;1.50;1.10;;;;;;;;;;5064978;28;20089;-51
2022/02/16 11:49:28;;;;;;;2.90;1.40;;;;;;;;;;5072851;28;20551;-49
2022/02/16 11:51:55;;;;;;;1.90;1.48;;;;;;;;;;5070479;28;20033;-53
2022/02/16 11:54:40;;;;;;;5.45;1.23;;;;;;;;;;5074928;28;20053;-51
2022/02/16 11:57:24;;;;;;;2.20;1.30;;;;;;;;;;5075449;28;20710;-54
2022/02/16 12:00:20;;;;;;;2.58;1.38;;;;;;;;;;5061459;28;20107;-53
2022/02/16 12:02:59;;;;;;;3.65;1.70;;;;;;;;;;5058672;28;20040;-53
2022/02/16 12:05:55;;;;;;;1.65;1.30;;;;;;;;;;5070634;28;20024;-51
2022/02/16 12:08:25;;;;;;;1.83;1.50;;;;;;;;;;5064022;28;20111;-55
2022/02/16 12:10:53;;;;;;;2.90;1.42;;;;;;;;;;5071268;28;20032;-48
2022/02/16 12:13:31;;;;;;;2.50;1.50;;;;;;;;;;5070711;28;20108;-49
2022/02/16 12:16:00;;;;;;;2.78;1.33;;;;;;;;;;5070546;28;20036;-50
2022/02/16 12:18:27;;;;;;;3.63;1.88;;;;;;;;;;5070402;28;20056;-49
2022/02/16 12:20:53;;;;;;;1.52;1.42;;;;;;;;;;5068626;28;20380;-48
2022/02/16 12:23:19;;;;;;;1.60;1.40;;;;;;;;;;5064892;28;20020;-51
2022/02/16 12:25:46;;;;;;;2.17;1.48;;;;;;;;;;5059679;28;20082;-50
2022/02/16 12:28:11;;;;;;;2.67;1.60;;;;;;;;;;5056545;28;20108;-49
2022/02/16 12:30:39;;;;;;;3.45;1.40;;;;;;;;;;5068212;28;20048;-49
2022/02/16 12:33:18;;;;;;;2.50;1.58;;;;;;;;;;5063833;28;20031;-48
2022/02/16 12:35:44;;;;;;;1.95;1.50;;;;;;;;;;5067329;28;20036;-50
2022/02/16 12:38:11;;;;;;;2.20;1.20;;;;;;;;;;5059076;28;20021;-49
2022/02/16 12:40:37;;;;;;;1.20;1.10;;;;;;;;;;5063341;28;20056;-49
2022/02/16 12:43:09;;;;;;;1.88;1.50;;;;;;;;;;5069253;28;20060;-50
2022/02/16 12:45:37;;;;;;;1.20;1.10;;;;;;;;;;5063291;28;20025;-51
2022/02/16 12:48:03;;;;;;;3.33;1.40;;;;;;;;;;5068961;28;20021;-51
2022/02/16 12:50:29;;;;;;;2.38;1.30;;;;;;;;;;5073683;28;20029;-48
2022/02/16 12:53:00;;;;;;;1.25;0.95;;;;;;;;;;5070339;28;20127;-52
2022/02/16 12:55:26;;;;;;;1.30;0.95;;;;;;;;;;5071432;28;20045;-51
2022/02/16 12:57:53;;;;;;;1.25;1.10;;;;;;;;;;5069593;28;20070;-52
2022/02/16 13:03:08;;;;;;;1.05;0.90;;;;;;;;;;5066171;28;20075;-49
2022/02/16 13:05:38;;;;;;;1.40;1.10;;;;;;;;;;5070603;28;20029;-52
2022/02/16 13:08:04;;;;;;;1.85;1.15;;;;;;;;;;5067332;28;20391;-50
2022/02/16 13:10:30;;;;;;;1.23;0.95;;;;;;;;;;5063376;28;20020;-50
2022/02/16 13:12:57;;;;;;;1.52;0.90;;;;;;;;;;5060134;28;20037;-49
2022/02/16 13:15:24;;;;;;;0.95;0.85;;;;;;;;;;5067337;28;20031;-50
2022/02/16 13:17:53;;;;;;;2.35;1.05;;;;;;;;;;5061417;28;20054;-50
2022/02/16 13:20:26;;;;;;;1.73;1.00;;;;;;;;;;5069174;28;20024;-50
2022/02/16 13:22:53;;;;;;;3.75;1.17;;;;;;;;;;5067459;28;20047;-52
2022/02/16 13:25:36;;;;;;;1.50;0.90;;;;;;;;;;5073694;28;20035;-53
2022/02/16 13:28:28;;;;;;;1.33;0.90;;;;;;;;;;5066805;28;20162;-51
2022/02/16 13:30:56;;;;;;;1.33;0.90;;;;;;;;;;5063798;28;20047;-49
2022/02/16 13:33:26;;;;;;;1.15;0.80;;;;;;;;;;5065468;28;20152;-51
2022/02/16 13:35:53;;;;;;;0.93;0.80;;;;;;;;;;5075335;28;20074;-53
2022/02/16 13:38:26;;;;;;;1.33;0.70;;;;;;;;;;5062799;28;20029;-50
2022/02/16 13:40:52;;;;;;;;;;;;;;;;;;5067313;28;20021;-51
2022/02/16 13:43:19;;;;;;;0.95;0.70;;;;;;;;;;5073316;28;20011;-52
2022/02/16 13:45:46;;;;;;;0.50;0.50;;;;;;;;;;5063962;28;20526;-51
2022/02/16 13:48:21;;;;;;;0.57;0.50;;;;;;;;;;5068217;28;20017;-50
2022/02/16 13:50:47;;;;;;;3.05;0.50;;;;;;;;;;5067479;28;20704;-51
2022/02/16 13:53:13;;;;;;;2.67;0.40;;;;;;;;;;5059621;28;20069;-50
2022/02/16 13:55:50;;;;;;;1.02;0.50;;;;;;;;;;5067997;28;20055;-50
2022/02/16 13:58:17;;;;;;;1.63;0.50;;;;;;;;;;5065253;28;20522;-52
2022/02/16 14:00:44;;;;;;;1.15;0.50;;;;;;;;;;5071401;28;20461;-50
2022/02/16 14:03:11;;;;;;;1.23;0.60;;;;;;;;;;5069361;28;20032;-48
2022/02/16 14:05:37;;;;;;;1.13;0.52;;;;;;;;;;5061802;28;20040;-49
2022/02/16 14:08:05;;;;;;;0.70;0.40;;;;;;;;;;5055751;28;20508;-52
2022/02/16 14:10:31;;;;;;;0.75;0.60;;;;;;;;;;5060868;28;20033;-48
2022/02/16 14:12:58;;;;;;;1.08;0.50;;;;;;;;;;5065748;28;20496;-52
2022/02/16 14:15:24;;;;;;;0.40;0.35;;;;;;;;;;5067263;28;20024;-50
2022/02/16 14:17:50;;;;;;;1.02;0.50;;;;;;;;;;5069453;28;20032;-50
2022/02/16 14:20:17;;;;;;;0.50;0.40;;;;;;;;;;5072883;28;20020;-52
2022/02/16 14:22:43;;;;;;;0.40;0.40;;;;;;;;;;5069172;28;20103;-51
2022/02/16 14:25:09;;;;;;;0.40;0.40;;;;;;;;;;5064515;28;20804;-51
2022/02/16 14:27:35;;;;;;;0.68;0.43;;;;;;;;;;5062846;28;20086;-50
2022/02/16 14:30:02;;;;;;;0.57;0.40;;;;;;;;;;5071958;28;20042;-50
2022/02/16 14:32:28;;;;;;;0.30;0.30;;;;;;;;;;5064529;28;20074;-52
2022/02/16 14:35:00;;;;;;;0.30;0.30;;;;;;;;;;5065615;28;20071;-52
2022/02/16 14:37:28;;;;;;;0.75;0.30;;;;;;;;;;5080916;28;20040;-53
2022/02/16 14:39:54;;;;;;;0.38;0.25;;;;;;;;;;5072395;28;20043;-51
2022/02/16 14:42:20;;;;;;;0.40;0.40;;;;;;;;;;5070174;28;20130;-53
2022/02/16 14:44:47;;;;;;;0.40;0.30;;;;;;;;;;5072001;28;20037;-52
2022/02/16 14:47:13;;;;;;;0.50;0.40;;;;;;;;;;5072331;28;20067;-53